createdAt,value
2022-10-07T00:00:34.628Z,1006.37
2022-10-07T00:01:34.712Z,1006.38
2022-10-07T00:02:34.664Z,1006.34
2022-10-07T00:03:34.612Z,1006.31
2022-10-07T00:04:34.605Z,1006.39
2022-10-07T00:05:34.590Z,1006.40
2022-10-07T00:06:34.609Z,1006.34
2022-10-07T00:07:34.572Z,1006.31
2022-10-07T00:08:34.567Z,1006.26
2022-10-07T00:09:34.569Z,1006.23
2022-10-07T00:10:34.558Z,1006.31
2022-10-07T00:11:34.571Z,1006.32
2022-10-07T00:12:34.540Z,1006.25
2022-10-07T00:13:34.529Z,1006.34
2022-10-07T00:14:34.518Z,1006.21
2022-10-07T00:15:35.513Z,1006.26
2022-10-07T00:16:34.589Z,1006.29
2022-10-07T00:17:35.495Z,1006.17
2022-10-07T00:18:34.486Z,1006.31
2022-10-07T00:19:34.482Z,1006.19
2022-10-07T00:20:34.472Z,1006.23
2022-10-07T00:21:34.503Z,1006.25
2022-10-07T00:22:34.462Z,1006.26
2022-10-07T00:23:34.459Z,1006.24
2022-10-07T00:24:34.448Z,1006.15
2022-10-07T00:25:34.528Z,1006.18
2022-10-07T00:26:34.447Z,1006.18
2022-10-07T00:27:34.415Z,1006.20
2022-10-07T00:28:34.450Z,1006.14
2022-10-07T00:29:34.403Z,1006.11
2022-10-07T00:30:34.416Z,1006.11
2022-10-07T00:31:34.417Z,1006.07
2022-10-07T00:32:34.379Z,1006.06
2022-10-07T00:33:34.370Z,1005.99
2022-10-07T00:34:34.361Z,1006.02
2022-10-07T00:35:34.284Z,1005.98
2022-10-07T00:36:34.329Z,1006.06
2022-10-07T00:37:34.270Z,1006.03
2022-10-07T00:38:34.230Z,1006.00
2022-10-07T00:39:34.224Z,1005.98
2022-10-07T00:40:34.217Z,1005.98
2022-10-07T00:41:34.234Z,1005.98
2022-10-07T00:42:34.200Z,1006.00
2022-10-07T00:43:34.195Z,1005.94
2022-10-07T00:44:34.183Z,1005.97
2022-10-07T00:45:34.207Z,1005.93
2022-10-07T00:46:34.208Z,1005.93
2022-10-07T00:47:34.174Z,1005.94
2022-10-07T00:48:34.152Z,1005.89
2022-10-07T00:49:34.142Z,1005.90
2022-10-07T00:50:34.133Z,1005.90
2022-10-07T00:51:34.150Z,1005.91
2022-10-07T00:52:34.120Z,1005.86
2022-10-07T00:53:34.114Z,1005.83
2022-10-07T00:54:34.114Z,1005.79
2022-10-07T00:55:34.093Z,1005.86
2022-10-07T00:56:34.112Z,1005.85
2022-10-07T00:57:34.083Z,1005.86
2022-10-07T00:58:34.072Z,1005.80
2022-10-07T00:59:34.054Z,1005.86
2022-10-07T01:00:35.055Z,1005.75
2022-10-07T01:01:34.135Z,1005.79
2022-10-07T01:02:35.099Z,1005.76
2022-10-07T01:03:34.032Z,1005.77
2022-10-07T01:04:34.024Z,1005.81
2022-10-07T01:05:34.018Z,1005.75
2022-10-07T01:06:34.045Z,1005.76
2022-10-07T01:07:34.002Z,1005.76
2022-10-07T01:08:33.994Z,1005.69
2022-10-07T01:09:33.982Z,1005.69
2022-10-07T01:10:33.974Z,1005.70
2022-10-07T01:11:33.971Z,1005.63
2022-10-07T01:12:33.988Z,1005.68
2022-10-07T01:13:33.958Z,1005.63
2022-10-07T01:14:33.951Z,1005.55
2022-10-07T01:15:33.940Z,1005.67
2022-10-07T01:16:33.980Z,1005.67
2022-10-07T01:17:33.950Z,1005.60
2022-10-07T01:18:33.913Z,1005.57
2022-10-07T01:19:33.903Z,1005.54
2022-10-07T01:20:33.900Z,1005.52
2022-10-07T01:21:33.888Z,1005.48
2022-10-07T01:22:33.911Z,1005.53
2022-10-07T01:23:33.910Z,1005.44
2022-10-07T01:24:33.860Z,1005.53
2022-10-07T01:25:33.853Z,1005.40
2022-10-07T01:26:33.850Z,1005.46
2022-10-07T01:27:33.866Z,1005.44
2022-10-07T01:28:33.945Z,1005.45
2022-10-07T01:29:33.824Z,1005.45
2022-10-07T01:30:33.864Z,1005.44
2022-10-07T01:31:33.819Z,1005.37
2022-10-07T01:32:33.835Z,1005.41
2022-10-07T01:33:33.816Z,1005.42
2022-10-07T01:34:33.783Z,1005.41
2022-10-07T01:35:33.782Z,1005.29
2022-10-07T01:36:33.774Z,1005.38
2022-10-07T01:37:33.789Z,1005.34
2022-10-07T01:38:33.767Z,1005.40
2022-10-07T01:39:33.751Z,1005.35
2022-10-07T01:40:33.740Z,1005.29
2022-10-07T01:41:33.738Z,1005.34
2022-10-07T01:42:33.751Z,1005.30
2022-10-07T01:43:33.715Z,1005.25
2022-10-07T01:44:33.709Z,1005.28
2022-10-07T01:45:33.699Z,1005.21
2022-10-07T01:46:33.726Z,1005.25
2022-10-07T01:47:33.707Z,1005.21
2022-10-07T01:48:33.679Z,1005.21
2022-10-07T01:49:33.666Z,1005.24
2022-10-07T01:50:33.659Z,1005.14
2022-10-07T01:51:33.664Z,1005.17
2022-10-07T01:52:33.672Z,1005.18
2022-10-07T01:53:33.636Z,1005.19
2022-10-07T01:54:33.631Z,1005.16
2022-10-07T01:55:33.619Z,1005.19
2022-10-07T01:56:33.619Z,1005.13
2022-10-07T01:57:33.630Z,1005.15
2022-10-07T01:58:33.594Z,1005.11
2022-10-07T01:59:33.595Z,1005.10
2022-10-07T02:00:33.593Z,1005.10
2022-10-07T02:01:33.609Z,1005.05
2022-10-07T02:02:33.588Z,1005.11
2022-10-07T02:03:33.588Z,1005.16
2022-10-07T02:04:33.549Z,1005.16
2022-10-07T02:05:33.540Z,1005.01
2022-10-07T02:06:33.535Z,1005.10
2022-10-07T02:07:33.553Z,1005.03
2022-10-07T02:08:33.519Z,1005.04
2022-10-07T02:09:33.510Z,1005.03
2022-10-07T02:10:33.502Z,1004.97
2022-10-07T02:11:33.499Z,1005.04
2022-10-07T02:12:33.512Z,1005.02
2022-10-07T02:13:33.484Z,1004.98
2022-10-07T02:14:33.472Z,1005.06
2022-10-07T02:15:33.497Z,1004.99
2022-10-07T02:16:33.456Z,1005.05
2022-10-07T02:17:33.479Z,1004.99
2022-10-07T02:18:33.441Z,1004.94
2022-10-07T02:19:33.433Z,1004.97
2022-10-07T02:20:33.434Z,1004.92
2022-10-07T02:21:33.424Z,1004.95
2022-10-07T02:22:33.438Z,1005.04
2022-10-07T02:23:33.402Z,1005.00
2022-10-07T02:24:33.395Z,1004.94
2022-10-07T02:25:33.387Z,1005.01
2022-10-07T02:26:33.379Z,1004.94
2022-10-07T02:27:33.395Z,1004.92
2022-10-07T02:28:33.428Z,1004.95
2022-10-07T02:29:33.358Z,1004.88
2022-10-07T02:30:33.352Z,1004.89
2022-10-07T02:31:33.478Z,1004.85
2022-10-07T02:32:33.359Z,1004.84
2022-10-07T02:33:33.327Z,1004.82
2022-10-07T02:34:33.318Z,1004.83
2022-10-07T02:35:33.311Z,1004.81
2022-10-07T02:36:33.301Z,1004.85
2022-10-07T02:37:33.321Z,1004.79
2022-10-07T02:38:33.284Z,1004.84
2022-10-07T02:39:33.280Z,1004.84
2022-10-07T02:40:33.269Z,1004.82
2022-10-07T02:41:33.251Z,1004.73
2022-10-07T02:42:34.277Z,1004.76
2022-10-07T02:43:33.248Z,1004.74
2022-10-07T02:44:33.241Z,1004.73
2022-10-07T02:45:33.233Z,1004.70
2022-10-07T02:46:33.269Z,1004.72
2022-10-07T02:47:33.243Z,1004.65
2022-10-07T02:48:33.193Z,1004.69
2022-10-07T02:49:34.200Z,1004.70
2022-10-07T02:50:33.191Z,1004.69
2022-10-07T02:51:33.188Z,1004.62
2022-10-07T02:52:33.204Z,1004.67
2022-10-07T02:53:33.169Z,1004.66
2022-10-07T02:54:33.157Z,1004.67
2022-10-07T02:55:33.142Z,1004.63
2022-10-07T02:56:34.149Z,1004.67
2022-10-07T02:57:33.139Z,1004.62
2022-10-07T02:58:33.157Z,1004.57
2022-10-07T02:59:33.124Z,1004.60
2022-10-07T03:00:33.117Z,1004.57
2022-10-07T03:01:33.151Z,1004.54
2022-10-07T03:02:33.100Z,1004.56
2022-10-07T03:03:33.151Z,1004.52
2022-10-07T03:04:33.087Z,1004.54
2022-10-07T03:05:33.080Z,1004.48
2022-10-07T03:06:33.075Z,1004.49
2022-10-07T03:07:33.061Z,1004.45
2022-10-07T03:08:33.093Z,1004.45
2022-10-07T03:09:33.051Z,1004.48
2022-10-07T03:10:33.041Z,1004.47
2022-10-07T03:11:33.030Z,1004.45
2022-10-07T03:12:33.023Z,1004.48
2022-10-07T03:13:33.041Z,1004.43
2022-10-07T03:14:33.008Z,1004.54
2022-10-07T03:15:33.063Z,1004.55
2022-10-07T03:16:33.081Z,1004.52
2022-10-07T03:17:32.992Z,1004.52
2022-10-07T03:18:33.004Z,1004.54
2022-10-07T03:19:32.973Z,1004.55
2022-10-07T03:20:32.960Z,1004.54
2022-10-07T03:21:32.962Z,1004.51
2022-10-07T03:22:32.952Z,1004.55
2022-10-07T03:23:32.963Z,1004.59
2022-10-07T03:24:32.931Z,1004.54
2022-10-07T03:25:32.925Z,1004.57
2022-10-07T03:26:32.918Z,1004.51
2022-10-07T03:27:32.907Z,1004.55
2022-10-07T03:28:32.932Z,1004.48
2022-10-07T03:29:32.892Z,1004.46
2022-10-07T03:30:32.879Z,1004.49
2022-10-07T03:31:32.938Z,1004.48
2022-10-07T03:32:32.871Z,1004.47
2022-10-07T03:33:32.885Z,1004.49
2022-10-07T03:34:32.847Z,1004.51
2022-10-07T03:35:32.843Z,1004.52
2022-10-07T03:36:32.834Z,1004.44
2022-10-07T03:37:32.823Z,1004.40
2022-10-07T03:38:32.841Z,1004.43
2022-10-07T03:39:32.810Z,1004.40
2022-10-07T03:40:32.802Z,1004.38
2022-10-07T03:41:32.791Z,1004.41
2022-10-07T03:42:32.787Z,1004.35
2022-10-07T03:43:32.804Z,1004.38
2022-10-07T03:44:32.772Z,1004.37
2022-10-07T03:45:32.771Z,1004.39
2022-10-07T03:46:32.811Z,1004.34
2022-10-07T03:47:32.748Z,1004.41
2022-10-07T03:48:32.769Z,1004.32
2022-10-07T03:49:32.734Z,1004.35
2022-10-07T03:50:32.727Z,1004.28
2022-10-07T03:51:32.717Z,1004.31
2022-10-07T03:52:32.723Z,1004.35
2022-10-07T03:53:32.724Z,1004.36
2022-10-07T03:54:32.696Z,1004.35
2022-10-07T03:55:32.689Z,1004.37
2022-10-07T03:56:32.684Z,1004.35
2022-10-07T03:57:32.678Z,1004.36
2022-10-07T03:58:32.690Z,1004.32
2022-10-07T03:59:32.664Z,1004.37
2022-10-07T04:00:32.655Z,1004.37
2022-10-07T04:01:32.698Z,1004.37
2022-10-07T04:02:32.720Z,1004.32
2022-10-07T04:03:32.627Z,1004.33
2022-10-07T04:04:32.617Z,1004.27
2022-10-07T04:05:32.612Z,1004.26
2022-10-07T04:06:32.605Z,1004.28
2022-10-07T04:07:32.628Z,1004.24
2022-10-07T04:08:32.777Z,1004.22
2022-10-07T04:09:33.580Z,1004.23
2022-10-07T04:10:32.575Z,1004.26
2022-10-07T04:11:32.557Z,1004.23
2022-10-07T04:12:33.595Z,1004.24
2022-10-07T04:13:32.555Z,1004.28
2022-10-07T04:14:32.545Z,1004.19
2022-10-07T04:15:32.535Z,1004.23
2022-10-07T04:16:35.937Z,1004.20
2022-10-07T04:17:34.552Z,1004.16
2022-10-07T04:18:32.511Z,1004.20
2022-10-07T04:19:32.503Z,1004.13
2022-10-07T04:20:32.495Z,1004.26
2022-10-07T04:21:32.490Z,1004.19
2022-10-07T04:22:32.479Z,1004.12
2022-10-07T04:23:32.502Z,1004.15
2022-10-07T04:24:32.468Z,1004.04
2022-10-07T04:25:32.464Z,1004.05
2022-10-07T04:26:32.456Z,1004.12
2022-10-07T04:27:50.674Z,1004.01
2022-10-07T04:28:34.509Z,1004.00
2022-10-07T04:29:38.176Z,1003.95
2022-10-07T04:30:34.423Z,1004.06
2022-10-07T04:31:32.457Z,1004.00
2022-10-07T04:32:32.407Z,1004.00
2022-10-07T04:33:32.424Z,1004.01
2022-10-07T04:34:32.389Z,1003.99
2022-10-07T04:35:32.383Z,1003.95
2022-10-07T04:36:32.375Z,1003.92
2022-10-07T04:37:32.365Z,1004.01
2022-10-07T04:38:32.381Z,1004.01
2022-10-07T04:39:56.151Z,1003.95
2022-10-07T04:40:34.345Z,1004.01
2022-10-07T04:41:32.376Z,1003.95
2022-10-07T04:42:32.326Z,1003.94
2022-10-07T04:43:32.339Z,1003.92
2022-10-07T04:44:32.311Z,1003.91
2022-10-07T04:45:32.302Z,1003.92
2022-10-07T04:46:32.359Z,1003.90
2022-10-07T04:47:32.286Z,1003.95
2022-10-07T04:48:32.303Z,1003.86
2022-10-07T04:49:32.270Z,1003.91
2022-10-07T04:50:32.259Z,1003.86
2022-10-07T04:51:32.252Z,1003.87
2022-10-07T04:52:32.245Z,1003.88
2022-10-07T04:53:32.264Z,1003.90
2022-10-07T04:54:32.232Z,1003.80
2022-10-07T04:55:32.228Z,1003.89
2022-10-07T04:56:32.213Z,1003.82
2022-10-07T04:57:32.210Z,1003.77
2022-10-07T04:58:32.221Z,1003.82
2022-10-07T04:59:33.127Z,1003.91
2022-10-07T05:00:32.206Z,1003.81
2022-10-07T05:01:32.174Z,1003.85
2022-10-07T05:02:32.231Z,1003.81
2022-10-07T05:03:32.189Z,1003.86
2022-10-07T05:04:32.151Z,1003.92
2022-10-07T05:05:32.144Z,1003.80
2022-10-07T05:06:32.133Z,1003.82
2022-10-07T05:07:33.132Z,1003.77
2022-10-07T05:08:32.139Z,1003.73
2022-10-07T05:09:32.142Z,1003.77
2022-10-07T05:10:32.111Z,1003.82
2022-10-07T05:11:32.103Z,1003.74
2022-10-07T05:12:32.091Z,1003.82
2022-10-07T05:13:32.078Z,1003.76
2022-10-07T05:14:32.103Z,1003.85
2022-10-07T05:15:32.066Z,1003.78
2022-10-07T05:16:32.153Z,1003.76
2022-10-07T05:17:32.060Z,1003.76
2022-10-07T05:18:32.047Z,1003.81
2022-10-07T05:19:32.063Z,1003.80
2022-10-07T05:20:32.029Z,1003.79
2022-10-07T05:21:32.018Z,1003.81
2022-10-07T05:22:32.013Z,1003.81
2022-10-07T05:23:32.006Z,1003.79
2022-10-07T05:24:32.025Z,1003.83
2022-10-07T05:25:31.988Z,1003.78
2022-10-07T05:26:31.988Z,1003.82
2022-10-07T05:27:31.972Z,1003.81
2022-10-07T05:28:32.145Z,1003.90
2022-10-07T05:29:32.006Z,1003.81
2022-10-07T05:30:31.954Z,1003.81
2022-10-07T05:31:32.002Z,1003.80
2022-10-07T05:32:31.934Z,1003.81
2022-10-07T05:33:31.921Z,1003.78
2022-10-07T05:34:32.940Z,1003.84
2022-10-07T05:35:31.910Z,1003.82
2022-10-07T05:36:31.908Z,1003.82
2022-10-07T05:37:31.899Z,1003.77
2022-10-07T05:38:31.887Z,1003.81
2022-10-07T05:39:31.906Z,1003.76
2022-10-07T05:40:31.875Z,1003.74
2022-10-07T05:41:31.864Z,1003.67
2022-10-07T05:42:31.861Z,1003.70
2022-10-07T05:43:31.854Z,1003.68
2022-10-07T05:44:31.869Z,1003.68
2022-10-07T05:45:31.889Z,1003.68
2022-10-07T05:46:31.827Z,1003.71
2022-10-07T05:47:31.906Z,1003.67
2022-10-07T05:48:36.667Z,1003.62
2022-10-07T05:49:33.825Z,1003.63
2022-10-07T05:50:31.794Z,1003.59
2022-10-07T05:51:31.788Z,1003.68
2022-10-07T05:52:31.781Z,1003.64
2022-10-07T05:53:31.776Z,1003.57
2022-10-07T05:54:31.786Z,1003.55
2022-10-07T05:55:33.153Z,1003.62
2022-10-07T05:56:31.750Z,1003.61
2022-10-07T05:57:31.744Z,1003.63
2022-10-07T05:58:31.731Z,1003.63
2022-10-07T05:59:31.749Z,1003.65
2022-10-07T06:00:31.721Z,1003.59
2022-10-07T06:01:31.709Z,1003.68
2022-10-07T06:02:31.814Z,1003.66
2022-10-07T06:03:31.689Z,1003.62
2022-10-07T06:04:31.709Z,1003.62
2022-10-07T06:05:31.673Z,1003.64
2022-10-07T06:06:31.669Z,1003.58
2022-10-07T06:07:31.660Z,1003.65
2022-10-07T06:08:31.678Z,1003.57
2022-10-07T06:09:31.639Z,1003.54
2022-10-07T06:10:31.629Z,1003.56
2022-10-07T06:11:31.629Z,1003.49
2022-10-07T06:12:31.615Z,1003.52
2022-10-07T06:13:31.636Z,1003.51
2022-10-07T06:14:31.606Z,1003.55
2022-10-07T06:15:31.595Z,1003.53
2022-10-07T06:16:31.639Z,1003.47
2022-10-07T06:17:31.574Z,1003.49
2022-10-07T06:18:31.592Z,1003.54
2022-10-07T06:19:31.562Z,1003.58
2022-10-07T06:20:31.554Z,1003.51
2022-10-07T06:21:31.555Z,1003.54
2022-10-07T06:22:31.536Z,1003.59
2022-10-07T06:23:31.554Z,1003.60
2022-10-07T06:24:31.516Z,1003.55
2022-10-07T06:25:31.512Z,1003.58
2022-10-07T06:26:31.506Z,1003.58
2022-10-07T06:27:31.493Z,1003.59
2022-10-07T06:28:31.592Z,1003.59
2022-10-07T06:29:31.484Z,1003.56
2022-10-07T06:30:31.537Z,1003.62
2022-10-07T06:31:31.467Z,1003.58
2022-10-07T06:32:31.457Z,1003.56
2022-10-07T06:33:31.471Z,1003.59
2022-10-07T06:34:31.437Z,1003.59
2022-10-07T06:35:31.428Z,1003.61
2022-10-07T06:36:31.497Z,1003.66
2022-10-07T06:37:31.412Z,1003.59
2022-10-07T06:38:31.430Z,1003.68
2022-10-07T06:39:31.400Z,1003.72
2022-10-07T06:40:31.394Z,1003.66
2022-10-07T06:41:31.385Z,1003.63
2022-10-07T06:42:31.383Z,1003.67
2022-10-07T06:43:31.387Z,1003.68
2022-10-07T06:44:31.359Z,1003.66
2022-10-07T06:45:31.350Z,1003.62
2022-10-07T06:46:31.417Z,1003.65
2022-10-07T06:47:31.335Z,1003.63
2022-10-07T06:48:31.349Z,1003.62
2022-10-07T06:49:31.348Z,1003.68
2022-10-07T06:50:31.316Z,1003.60
2022-10-07T06:51:31.302Z,1003.67
2022-10-07T06:52:31.289Z,1003.62
2022-10-07T06:53:31.310Z,1003.70
2022-10-07T06:54:31.276Z,1003.65
2022-10-07T06:55:31.268Z,1003.69
2022-10-07T06:56:31.260Z,1003.60
2022-10-07T06:57:45.288Z,1003.60
2022-10-07T06:58:33.282Z,1003.61
2022-10-07T06:59:31.237Z,1003.66
2022-10-07T07:00:31.233Z,1003.66
2022-10-07T07:01:31.275Z,1003.62
2022-10-07T07:02:31.259Z,1003.70
2022-10-07T07:03:31.228Z,1003.63
2022-10-07T07:04:31.199Z,1003.63
2022-10-07T07:05:31.186Z,1003.63
2022-10-07T07:06:31.178Z,1003.62
2022-10-07T07:07:31.181Z,1003.69
2022-10-07T07:08:31.194Z,1003.62
2022-10-07T07:09:31.159Z,1003.60
2022-10-07T07:10:31.150Z,1003.61
2022-10-07T07:11:31.144Z,1003.56
2022-10-07T07:12:31.136Z,1003.62
2022-10-07T07:13:31.174Z,1003.62
2022-10-07T07:14:31.123Z,1003.65
2022-10-07T07:15:31.116Z,1003.62
2022-10-07T07:16:31.153Z,1003.60
2022-10-07T07:17:31.096Z,1003.63
2022-10-07T07:18:31.112Z,1003.62
2022-10-07T07:19:31.084Z,1003.62
2022-10-07T07:20:31.078Z,1003.62
2022-10-07T07:21:31.163Z,1003.53
2022-10-07T07:22:31.066Z,1003.54
2022-10-07T07:23:31.080Z,1003.57
2022-10-07T07:24:31.044Z,1003.62
2022-10-07T07:25:31.047Z,1003.52
2022-10-07T07:26:31.024Z,1003.59
2022-10-07T07:27:31.016Z,1003.57
2022-10-07T07:28:31.090Z,1003.63
2022-10-07T07:29:31.007Z,1003.58
2022-10-07T07:30:31.029Z,1003.63
2022-10-07T07:31:30.984Z,1003.59
2022-10-07T07:32:30.999Z,1003.56
2022-10-07T07:33:30.996Z,1003.56
2022-10-07T07:34:30.975Z,1003.61
2022-10-07T07:35:30.959Z,1003.59
2022-10-07T07:36:30.958Z,1003.51
2022-10-07T07:37:30.944Z,1003.39
2022-10-07T07:38:30.965Z,1003.36
2022-10-07T07:39:30.929Z,1003.45
2022-10-07T07:40:30.918Z,1003.42
2022-10-07T07:41:30.914Z,1003.41
2022-10-07T07:42:30.906Z,1003.39
2022-10-07T07:43:30.923Z,1003.43
2022-10-07T07:44:34.121Z,1003.38
2022-10-07T07:45:31.883Z,1003.47
2022-10-07T07:46:30.879Z,1003.40
2022-10-07T07:47:30.868Z,1003.46
2022-10-07T07:48:30.886Z,1003.41
2022-10-07T07:49:30.850Z,1003.36
2022-10-07T07:50:30.858Z,1003.29
2022-10-07T07:51:30.833Z,1003.37
2022-10-07T07:52:30.827Z,1003.34
2022-10-07T07:53:30.839Z,1003.35
2022-10-07T07:54:30.811Z,1003.40
2022-10-07T07:55:30.799Z,1003.40
2022-10-07T07:56:30.804Z,1003.31
2022-10-07T07:57:30.781Z,1003.36
2022-10-07T07:58:30.802Z,1003.30
2022-10-07T07:59:30.772Z,1003.38
2022-10-07T08:00:30.765Z,1003.33
2022-10-07T08:01:30.787Z,1003.43
2022-10-07T08:02:30.777Z,1003.37
2022-10-07T08:03:30.765Z,1003.36
2022-10-07T08:04:30.731Z,1003.31
2022-10-07T08:05:30.727Z,1003.34
2022-10-07T08:06:30.718Z,1003.35
2022-10-07T08:07:30.704Z,1003.34
2022-10-07T08:08:30.736Z,1003.31
2022-10-07T08:09:30.689Z,1003.33
2022-10-07T08:10:30.683Z,1003.24
2022-10-07T08:11:30.677Z,1003.26
2022-10-07T08:12:30.683Z,1003.28
2022-10-07T08:13:30.664Z,1003.26
2022-10-07T08:14:30.684Z,1003.24
2022-10-07T08:15:30.674Z,1003.25
2022-10-07T08:16:30.656Z,1003.31
2022-10-07T08:17:30.627Z,1003.29
2022-10-07T08:18:30.619Z,1003.22
2022-10-07T08:19:30.637Z,1003.28
2022-10-07T08:20:30.589Z,1003.12
2022-10-07T08:21:31.594Z,1003.19
2022-10-07T08:22:30.592Z,1003.17
2022-10-07T08:23:30.579Z,1003.21
2022-10-07T08:24:30.596Z,1003.19
2022-10-07T08:25:30.577Z,1003.27
2022-10-07T08:26:30.571Z,1003.18
2022-10-07T08:27:30.548Z,1003.14
2022-10-07T08:28:30.603Z,1003.08
2022-10-07T08:29:30.559Z,1003.12
2022-10-07T08:30:30.520Z,1003.15
2022-10-07T08:31:31.514Z,1003.08
2022-10-07T08:32:30.512Z,1003.08
2022-10-07T08:33:30.501Z,1003.10
2022-10-07T08:34:30.522Z,1003.07
2022-10-07T08:35:30.487Z,1003.08
2022-10-07T08:36:30.481Z,1003.06
2022-10-07T08:37:30.474Z,1003.01
2022-10-07T08:38:30.464Z,1003.02
2022-10-07T08:39:30.480Z,1002.98
2022-10-07T08:40:30.444Z,1002.96
2022-10-07T08:41:30.436Z,1002.98
2022-10-07T08:42:30.430Z,1002.97
2022-10-07T08:43:30.424Z,1002.99
2022-10-07T08:44:30.442Z,1002.91
2022-10-07T08:45:30.420Z,1002.93
2022-10-07T08:46:30.449Z,1002.94
2022-10-07T08:47:30.401Z,1002.82
2022-10-07T08:48:30.385Z,1002.87
2022-10-07T08:49:30.405Z,1002.92
2022-10-07T08:50:30.370Z,1002.85
2022-10-07T08:51:30.359Z,1002.89
2022-10-07T08:52:31.356Z,1002.79
2022-10-07T08:53:30.349Z,1002.79
2022-10-07T08:54:30.378Z,1002.79
2022-10-07T08:55:30.336Z,1002.82
2022-10-07T08:56:30.332Z,1002.75
2022-10-07T08:57:30.319Z,1002.77
2022-10-07T08:58:30.309Z,1002.77
2022-10-07T08:59:30.332Z,1002.72
2022-10-07T09:00:30.292Z,1002.69
2022-10-07T09:01:30.360Z,1002.65
2022-10-07T09:02:30.323Z,1002.62
2022-10-07T09:03:30.273Z,1002.69
2022-10-07T09:04:30.289Z,1002.63
2022-10-07T09:05:30.254Z,1002.60
2022-10-07T09:06:30.251Z,1002.59
2022-10-07T09:07:30.243Z,1002.59
2022-10-07T09:08:30.240Z,1002.54
2022-10-07T09:09:30.265Z,1002.58
2022-10-07T09:10:30.219Z,1002.56
2022-10-07T09:11:30.209Z,1002.47
2022-10-07T09:12:30.206Z,1002.45
2022-10-07T09:13:30.205Z,1002.48
2022-10-07T09:14:30.221Z,1002.46
2022-10-07T09:15:30.206Z,1002.41
2022-10-07T09:16:30.171Z,1002.40
2022-10-07T09:17:34.896Z,1002.41
2022-10-07T09:18:32.157Z,1002.40
2022-10-07T09:19:30.158Z,1002.46
2022-10-07T09:20:30.176Z,1002.39
2022-10-07T09:21:30.139Z,1002.39
2022-10-07T09:22:30.139Z,1002.34
2022-10-07T09:23:30.125Z,1002.29
2022-10-07T09:24:30.225Z,1002.26
2022-10-07T09:25:30.109Z,1002.30
2022-10-07T09:26:30.102Z,1002.29
2022-10-07T09:27:30.101Z,1002.30
2022-10-07T09:28:30.129Z,1002.28
2022-10-07T09:29:30.079Z,1002.26
2022-10-07T09:30:30.099Z,1002.19
2022-10-07T09:31:30.118Z,1002.18
2022-10-07T09:32:30.056Z,1002.20
2022-10-07T09:33:30.046Z,1002.25
2022-10-07T09:34:30.036Z,1002.22
2022-10-07T09:35:30.059Z,1002.26
2022-10-07T09:36:30.026Z,1002.20
2022-10-07T09:37:30.018Z,1002.13
2022-10-07T09:38:30.011Z,1002.20
2022-10-07T09:39:30.030Z,1002.11
2022-10-07T09:40:29.995Z,1002.14
2022-10-07T09:41:31.339Z,1002.09
2022-10-07T09:42:30.983Z,1002.00
2022-10-07T09:43:29.973Z,1002.02
2022-10-07T09:44:29.966Z,1002.01
2022-10-07T09:45:29.979Z,1001.97
2022-10-07T09:46:29.995Z,1001.95
2022-10-07T09:47:29.936Z,1001.96
2022-10-07T09:48:29.934Z,1002.03
2022-10-07T09:49:29.929Z,1001.90
2022-10-07T09:50:29.946Z,1001.93
2022-10-07T09:51:29.912Z,1001.82
2022-10-07T09:52:29.903Z,1001.86
2022-10-07T09:53:29.896Z,1001.83
2022-10-07T09:54:29.890Z,1001.88
2022-10-07T09:55:29.903Z,1001.84
2022-10-07T09:56:29.894Z,1001.85
2022-10-07T09:57:29.876Z,1001.78
2022-10-07T09:58:29.860Z,1001.77
2022-10-07T09:59:29.880Z,1001.70
2022-10-07T10:00:29.842Z,1001.77
2022-10-07T10:01:29.830Z,1001.76
2022-10-07T10:02:29.934Z,1001.67
2022-10-07T10:03:29.859Z,1001.58
2022-10-07T10:04:29.844Z,1001.68
2022-10-07T10:05:29.804Z,1001.62
2022-10-07T10:06:29.791Z,1001.68
2022-10-07T10:07:29.784Z,1001.60
2022-10-07T10:08:29.776Z,1001.63
2022-10-07T10:09:29.768Z,1001.66
2022-10-07T10:10:29.788Z,1001.64
2022-10-07T10:11:29.753Z,1001.60
2022-10-07T10:12:29.748Z,1001.58
2022-10-07T10:13:29.741Z,1001.60
2022-10-07T10:14:29.723Z,1001.55
2022-10-07T10:15:30.752Z,1001.57
2022-10-07T10:16:29.716Z,1001.53
2022-10-07T10:17:29.708Z,1001.49
2022-10-07T10:18:29.704Z,1001.50
2022-10-07T10:19:33.490Z,1001.51
2022-10-07T10:20:31.708Z,1001.46
2022-10-07T10:21:29.690Z,1001.51
2022-10-07T10:22:29.671Z,1001.39
2022-10-07T10:23:29.665Z,1001.43
2022-10-07T10:24:29.663Z,1001.40
2022-10-07T10:25:29.676Z,1001.33
2022-10-07T10:26:33.909Z,1001.38
2022-10-07T10:27:30.634Z,1001.26
2022-10-07T10:28:29.732Z,1001.21
2022-10-07T10:29:29.615Z,1001.17
2022-10-07T10:30:29.634Z,1001.18
2022-10-07T10:31:30.673Z,1001.19
2022-10-07T10:32:29.596Z,1001.20
2022-10-07T10:33:29.587Z,1001.20
2022-10-07T10:34:29.589Z,1001.23
2022-10-07T10:35:29.600Z,1001.26
2022-10-07T10:36:29.571Z,1001.17
2022-10-07T10:37:29.554Z,1001.17
2022-10-07T10:38:29.549Z,1001.17
2022-10-07T10:39:29.540Z,1001.17
2022-10-07T10:40:29.534Z,1001.16
2022-10-07T10:41:29.550Z,1001.09
2022-10-07T10:42:31.291Z,1001.06
2022-10-07T10:43:29.507Z,1001.12
2022-10-07T10:44:29.504Z,1001.06
2022-10-07T10:45:29.489Z,1001.04
2022-10-07T10:46:29.535Z,1001.04
2022-10-07T10:47:29.498Z,1001.00
2022-10-07T10:48:29.472Z,1000.98
2022-10-07T10:49:29.460Z,1000.96
2022-10-07T10:50:29.485Z,1000.95
2022-10-07T10:51:29.446Z,1000.96
2022-10-07T10:52:29.443Z,1000.94
2022-10-07T10:53:29.432Z,1000.92
2022-10-07T10:54:29.421Z,1000.85
2022-10-07T10:55:29.446Z,1000.82
2022-10-07T10:56:29.409Z,1000.81
2022-10-07T10:57:30.406Z,1000.74
2022-10-07T10:58:29.397Z,1000.77
2022-10-07T10:59:29.392Z,1000.73
2022-10-07T11:00:29.408Z,1000.70
2022-10-07T11:01:29.396Z,1000.70
2022-10-07T11:02:29.475Z,1000.67
2022-10-07T11:03:29.359Z,1000.66
2022-10-07T11:04:29.356Z,1000.65
2022-10-07T11:05:29.369Z,1000.63
2022-10-07T11:06:29.442Z,1000.62
2022-10-07T11:07:29.334Z,1000.57
2022-10-07T11:08:29.323Z,1000.53
2022-10-07T11:09:30.722Z,1000.47
2022-10-07T11:10:30.330Z,1000.45
2022-10-07T11:11:29.295Z,1000.51
2022-10-07T11:12:29.285Z,1000.49
2022-10-07T11:13:29.766Z,1000.45
2022-10-07T11:14:29.271Z,1000.45
2022-10-07T11:15:29.282Z,1000.46
2022-10-07T11:16:29.240Z,1000.42
2022-10-07T11:17:30.249Z,1000.43
2022-10-07T11:18:29.237Z,1000.42
2022-10-07T11:19:29.229Z,1000.40
2022-10-07T11:20:29.248Z,1000.39
2022-10-07T11:21:29.246Z,1000.34
2022-10-07T11:22:29.206Z,1000.36
2022-10-07T11:23:29.225Z,1000.37
2022-10-07T11:24:29.191Z,1000.31
2022-10-07T11:25:29.204Z,1000.30
2022-10-07T11:26:32.413Z,1000.27
2022-10-07T11:27:31.161Z,1000.23
2022-10-07T11:28:29.214Z,1000.28
2022-10-07T11:29:29.147Z,1000.26
2022-10-07T11:30:29.167Z,1000.25
2022-10-07T11:31:29.160Z,1000.19
2022-10-07T11:32:29.129Z,1000.16
2022-10-07T11:33:29.119Z,1000.13
2022-10-07T11:34:29.133Z,1000.15
2022-10-07T11:35:29.103Z,1000.12
2022-10-07T11:36:29.079Z,1000.07
2022-10-07T11:37:30.092Z,1000.10
2022-10-07T11:38:29.075Z,1000.11
2022-10-07T11:39:29.097Z,1000.03
2022-10-07T11:40:29.211Z,1000.04
2022-10-07T11:41:30.052Z,1000.02
2022-10-07T11:42:29.037Z,1000.06
2022-10-07T11:43:30.034Z,999.95
2022-10-07T11:44:29.058Z,999.98
2022-10-07T11:45:29.017Z,999.93
2022-10-07T11:46:29.055Z,999.93
2022-10-07T11:47:29.003Z,999.92
2022-10-07T11:48:28.998Z,999.96
2022-10-07T11:49:29.012Z,999.89
2022-10-07T11:50:28.975Z,999.85
2022-10-07T11:51:28.965Z,999.85
2022-10-07T11:52:28.961Z,999.85
2022-10-07T11:53:28.955Z,999.78
2022-10-07T11:54:28.947Z,999.76
2022-10-07T11:55:28.964Z,999.84
2022-10-07T11:56:29.002Z,999.85
2022-10-07T11:57:28.923Z,999.74
2022-10-07T11:58:28.917Z,999.67
2022-10-07T11:59:28.911Z,999.70
2022-10-07T12:00:28.949Z,999.70
2022-10-07T12:01:28.918Z,999.63
2022-10-07T12:02:28.961Z,999.67
2022-10-07T12:03:28.929Z,999.64
2022-10-07T12:04:28.868Z,999.61
2022-10-07T12:05:28.882Z,999.57
2022-10-07T12:06:28.861Z,999.53